createdAt,value
2022-12-20T00:01:36.206Z,66.83
2022-12-20T00:04:06.969Z,67.03
2022-12-20T00:06:36.352Z,67.20
2022-12-20T00:09:07.857Z,67.71
2022-12-20T00:11:36.672Z,67.75
2022-12-20T00:14:04.969Z,67.55
2022-12-20T00:16:33.374Z,66.00
2022-12-20T00:19:03.786Z,66.18
2022-12-20T00:21:34.810Z,65.74
2022-12-20T00:24:03.770Z,65.67
2022-12-20T00:26:34.844Z,66.13
2022-12-20T00:29:03.570Z,66.23
2022-12-20T00:31:32.761Z,65.87
2022-12-20T00:34:02.302Z,66.07
2022-12-20T00:36:33.958Z,65.68
2022-12-20T00:39:03.200Z,64.91
2022-12-20T00:41:33.618Z,65.23
2022-12-20T00:44:02.183Z,65.27
2022-12-20T00:46:31.723Z,66.29
2022-12-20T00:49:00.481Z,66.92
2022-12-20T00:51:31.336Z,66.11
2022-12-20T00:54:01.299Z,66.16
2022-12-20T00:56:29.557Z,65.85
2022-12-20T00:59:00.282Z,66.35
2022-12-20T01:01:31.779Z,66.38
2022-12-20T01:04:00.399Z,66.39
2022-12-20T01:06:29.462Z,66.14
2022-12-20T01:08:58.721Z,65.50
2022-12-20T01:11:31.058Z,64.82
2022-12-20T01:14:02.307Z,65.11
2022-12-20T01:16:36.781Z,65.66
2022-12-20T01:19:05.862Z,65.37
2022-12-20T01:21:34.683Z,64.35
2022-12-20T01:24:03.072Z,64.71
2022-12-20T01:26:32.756Z,64.30
2022-12-20T01:29:01.409Z,63.67
2022-12-20T01:31:31.153Z,63.80
2022-12-20T01:34:01.619Z,63.90
2022-12-20T01:36:32.328Z,63.96
2022-12-20T01:39:02.923Z,64.25
2022-12-20T01:41:34.089Z,63.58
2022-12-20T01:44:04.675Z,64.41
2022-12-20T01:46:34.916Z,63.55
2022-12-20T01:49:08.261Z,63.38
2022-12-20T01:51:39.757Z,62.91
2022-12-20T01:54:13.846Z,63.68
2022-12-20T01:56:49.056Z,65.50
2022-12-20T01:59:18.293Z,64.84
2022-12-20T02:01:47.362Z,63.88
2022-12-20T02:04:15.676Z,64.09
2022-12-20T02:06:44.827Z,64.78
2022-12-20T02:09:14.015Z,65.12
2022-12-20T02:12:08.152Z,66.48
2022-12-20T02:14:51.928Z,65.55
2022-12-20T02:17:28.106Z,65.60
2022-12-20T02:20:17.672Z,65.75
2022-12-20T02:23:04.213Z,64.86
2022-12-20T02:25:54.528Z,65.53
2022-12-20T02:28:47.319Z,65.54
2022-12-20T02:31:20.355Z,65.75
2022-12-20T02:33:51.089Z,65.53
2022-12-20T02:36:19.875Z,65.38
2022-12-20T02:38:51.801Z,65.20
2022-12-20T02:41:25.014Z,64.05
2022-12-20T02:44:15.603Z,64.89
2022-12-20T02:46:46.915Z,64.89
2022-12-20T02:49:17.871Z,64.56
2022-12-20T02:51:49.410Z,64.06
2022-12-20T02:54:18.965Z,65.55
2022-12-20T02:56:53.733Z,65.13
2022-12-20T02:59:26.260Z,65.87
2022-12-20T03:01:57.956Z,65.78
2022-12-20T03:04:30.426Z,65.49
2022-12-20T03:07:00.872Z,65.21
2022-12-20T03:09:29.978Z,64.15
2022-12-20T03:11:58.623Z,64.81
2022-12-20T03:14:26.919Z,65.49
2022-12-20T03:16:59.896Z,64.51
2022-12-20T03:19:28.180Z,64.35
2022-12-20T03:21:56.509Z,65.40
2022-12-20T03:24:25.034Z,63.76
2022-12-20T03:26:54.472Z,64.02
2022-12-20T03:29:25.282Z,63.41
2022-12-20T03:31:53.588Z,63.30
2022-12-20T03:34:23.325Z,65.06
2022-12-20T03:36:51.633Z,64.91
2022-12-20T03:39:19.779Z,63.72
2022-12-20T03:41:48.242Z,64.10
2022-12-20T03:44:19.261Z,63.91
2022-12-20T03:46:47.600Z,64.94
2022-12-20T03:49:16.037Z,65.72
2022-12-20T03:51:50.611Z,66.22
2022-12-20T03:54:20.071Z,65.67
2022-12-20T03:57:07.751Z,66.17
2022-12-20T03:59:36.672Z,65.81
2022-12-20T04:02:06.629Z,65.05
2022-12-20T04:04:35.413Z,64.33
2022-12-20T04:07:05.108Z,63.93
2022-12-20T04:09:34.512Z,63.74
2022-12-20T04:12:09.322Z,62.88
2022-12-20T04:14:39.866Z,63.67
2022-12-20T04:17:08.637Z,64.21
2022-12-20T04:19:37.889Z,64.02
2022-12-20T04:22:09.031Z,63.58
2022-12-20T04:25:02.764Z,63.04
2022-12-20T04:27:34.563Z,62.96
2022-12-20T04:30:08.783Z,61.78
2022-12-20T04:32:36.956Z,62.51
2022-12-20T04:35:06.309Z,62.53
2022-12-20T04:37:40.626Z,61.58
2022-12-20T04:40:10.698Z,62.51
2022-12-20T04:42:47.581Z,62.95
2022-12-20T04:45:17.493Z,61.48
2022-12-20T04:47:45.960Z,62.11
2022-12-20T04:50:17.221Z,61.21
2022-12-20T04:53:05.231Z,62.60
2022-12-20T04:55:38.607Z,65.13
2022-12-20T04:58:07.827Z,65.18
2022-12-20T05:00:38.694Z,65.08
2022-12-20T05:03:19.758Z,65.16
2022-12-20T05:05:48.942Z,65.09
2022-12-20T05:08:19.468Z,65.94
2022-12-20T05:10:49.302Z,65.23
2022-12-20T05:13:17.857Z,65.72
2022-12-20T05:15:52.383Z,64.96
2022-12-20T05:18:26.236Z,66.02
2022-12-20T05:21:23.369Z,65.44
2022-12-20T05:24:12.810Z,65.39
2022-12-20T05:26:55.031Z,65.21
2022-12-20T05:29:23.625Z,65.07
2022-12-20T05:31:52.137Z,64.63
2022-12-20T05:34:20.804Z,63.74
2022-12-20T05:36:53.642Z,66.19
2022-12-20T05:39:26.131Z,66.33
2022-12-20T05:41:57.392Z,65.30
2022-12-20T05:44:27.285Z,65.81
2022-12-20T05:46:58.624Z,66.18
2022-12-20T05:49:30.924Z,65.90
2022-12-20T05:52:02.342Z,67.12
2022-12-20T05:54:32.827Z,67.19
2022-12-20T05:57:21.216Z,66.94
2022-12-20T05:59:49.751Z,68.12
2022-12-20T06:02:20.653Z,67.60
2022-12-20T06:04:52.593Z,67.07
2022-12-20T06:07:23.578Z,67.55
2022-12-20T06:10:00.566Z,67.35
2022-12-20T06:12:41.857Z,67.26
2022-12-20T06:15:11.351Z,67.19
2022-12-20T06:17:40.598Z,65.89
2022-12-20T06:20:12.231Z,64.16
2022-12-20T06:22:41.348Z,63.62
2022-12-20T06:25:12.526Z,64.52
2022-12-20T06:27:42.280Z,66.07
2022-12-20T06:30:19.033Z,66.64
2022-12-20T06:33:16.729Z,66.23
2022-12-20T06:35:44.929Z,67.05
2022-12-20T06:38:13.504Z,67.21
2022-12-20T06:40:43.523Z,66.76
2022-12-20T06:43:11.785Z,67.19
2022-12-20T06:45:42.177Z,68.22
2022-12-20T06:48:12.644Z,67.17
2022-12-20T06:50:42.144Z,66.14
2022-12-20T06:53:10.934Z,66.97
2022-12-20T06:55:40.540Z,64.64
2022-12-20T06:58:10.392Z,64.13
2022-12-20T07:00:39.633Z,64.45
2022-12-20T07:03:08.810Z,63.71
2022-12-20T07:05:37.388Z,63.17
2022-12-20T07:08:06.749Z,63.74
2022-12-20T07:10:36.740Z,65.00
2022-12-20T07:13:05.268Z,64.39
2022-12-20T07:15:35.194Z,64.71
2022-12-20T07:18:03.745Z,65.58
2022-12-20T07:20:32.437Z,65.76
2022-12-20T07:23:00.957Z,65.30
2022-12-20T07:25:29.279Z,65.93
2022-12-20T07:27:57.777Z,65.66
2022-12-20T07:30:26.960Z,65.74
2022-12-20T07:32:56.791Z,66.35
2022-12-20T07:35:25.040Z,67.04
2022-12-20T07:37:54.250Z,66.09
2022-12-20T07:40:22.456Z,65.02
2022-12-20T07:42:50.900Z,64.30
2022-12-20T07:45:19.968Z,63.02
2022-12-20T07:47:48.393Z,61.26
2022-12-20T07:50:18.152Z,62.79
2022-12-20T07:52:49.253Z,64.94
2022-12-20T07:55:19.625Z,65.21
2022-12-20T07:57:51.655Z,65.78
2022-12-20T08:00:20.696Z,65.80
2022-12-20T08:02:54.030Z,63.80
2022-12-20T08:05:24.763Z,62.27
2022-12-20T08:07:58.991Z,58.39
2022-12-20T08:10:28.597Z,55.76
2022-12-20T08:12:57.464Z,52.71
2022-12-20T08:15:26.965Z,52.72
2022-12-20T08:17:55.264Z,52.34
2022-12-20T08:20:25.039Z,55.06
2022-12-20T08:22:53.281Z,56.42
2022-12-20T08:25:22.285Z,57.92
2022-12-20T08:27:50.844Z,60.09
2022-12-20T08:30:19.330Z,60.38
2022-12-20T08:32:47.533Z,58.55
2022-12-20T08:35:15.863Z,59.15
2022-12-20T08:37:45.579Z,58.33
2022-12-20T08:40:14.745Z,60.47
2022-12-20T08:42:42.903Z,59.71
2022-12-20T08:45:12.432Z,58.75
2022-12-20T08:47:40.892Z,59.96
2022-12-20T08:50:10.091Z,59.59
2022-12-20T08:52:38.456Z,61.10
2022-12-20T08:55:08.917Z,60.41
2022-12-20T08:57:37.148Z,60.37
2022-12-20T09:00:06.386Z,60.82
2022-12-20T09:02:38.291Z,62.57
2022-12-20T09:05:07.416Z,63.87
2022-12-20T09:07:35.577Z,63.53
2022-12-20T09:10:03.946Z,63.57
2022-12-20T09:12:37.329Z,63.43
2022-12-20T09:15:07.139Z,63.80
2022-12-20T09:17:35.618Z,62.14
2022-12-20T09:20:03.968Z,60.38
2022-12-20T09:22:32.201Z,56.23
2022-12-20T09:25:00.482Z,56.57
2022-12-20T09:27:28.680Z,56.27
2022-12-20T09:29:59.038Z,55.68
2022-12-20T09:32:27.273Z,52.86
2022-12-20T09:34:56.117Z,50.69
2022-12-20T09:37:24.341Z,54.32
2022-12-20T09:39:52.552Z,56.62
2022-12-20T09:42:25.798Z,57.40
2022-12-20T09:45:04.799Z,58.34
2022-12-20T09:47:36.111Z,59.54
2022-12-20T09:50:07.636Z,59.38
2022-12-20T09:52:58.395Z,60.68
2022-12-20T09:55:35.699Z,61.49
2022-12-20T09:58:20.269Z,61.81
2022-12-20T10:00:53.926Z,61.70
2022-12-20T10:03:30.207Z,59.91
2022-12-20T10:06:01.586Z,60.00
2022-12-20T10:08:46.476Z,59.00
2022-12-20T10:11:40.701Z,58.08
2022-12-20T10:14:28.261Z,59.09
2022-12-20T10:17:03.440Z,60.23
2022-12-20T10:20:00.846Z,57.28
2022-12-20T10:22:35.216Z,57.99
2022-12-20T10:25:15.511Z,55.79
2022-12-20T10:27:44.908Z,55.22
2022-12-20T10:30:16.896Z,58.48
2022-12-20T10:32:47.532Z,58.65
2022-12-20T10:35:31.497Z,56.35
2022-12-20T10:38:09.944Z,56.72
2022-12-20T10:41:18.830Z,57.26
2022-12-20T10:43:37.659Z,57.90
2022-12-20T10:46:08.511Z,58.17
2022-12-20T10:48:39.142Z,55.36
2022-12-20T10:51:17.902Z,55.53
2022-12-20T10:53:55.949Z,56.11
2022-12-20T10:56:27.565Z,55.54
2022-12-20T10:58:58.903Z,56.33
2022-12-20T11:01:31.743Z,56.50
2022-12-20T11:04:03.092Z,57.97
2022-12-20T11:06:44.938Z,57.71
2022-12-20T11:09:26.158Z,58.12
2022-12-20T11:12:02.565Z,58.02
2022-12-20T11:14:38.723Z,57.86
2022-12-20T11:17:23.804Z,58.83
2022-12-20T11:20:08.238Z,60.16
2022-12-20T11:22:52.302Z,60.87
2022-12-20T11:25:38.269Z,60.04
2022-12-20T11:28:21.383Z,59.74
2022-12-20T11:30:59.890Z,59.75
2022-12-20T11:33:44.484Z,62.41
2022-12-20T11:36:23.752Z,60.09
2022-12-20T11:39:05.525Z,61.04
2022-12-20T11:41:43.843Z,61.23
2022-12-20T11:44:26.611Z,58.75
2022-12-20T11:47:11.880Z,58.24
2022-12-20T11:50:00.512Z,58.45
2022-12-20T11:52:37.034Z,57.33
2022-12-20T11:55:18.015Z,56.98
2022-12-20T11:58:17.400Z,57.10
2022-12-20T12:00:49.544Z,54.32
2022-12-20T12:03:24.563Z,55.09
2022-12-20T12:05:57.126Z,52.56
2022-12-20T12:08:33.285Z,52.49
2022-12-20T12:11:07.486Z,51.14
2022-12-20T12:13:40.367Z,51.34
2022-12-20T12:16:12.598Z,54.26
2022-12-20T12:18:42.273Z,54.12
2022-12-20T12:21:19.811Z,54.09
2022-12-20T12:23:58.852Z,53.21
2022-12-20T12:26:30.817Z,53.83
2022-12-20T12:29:01.279Z,53.32
2022-12-20T12:31:37.362Z,56.38
2022-12-20T12:34:13.234Z,53.48
2022-12-20T12:37:07.013Z,52.19
2022-12-20T12:39:52.800Z,55.02
2022-12-20T12:42:54.673Z,55.93
2022-12-20T12:45:27.492Z,55.77
2022-12-20T12:47:59.585Z,57.16
2022-12-20T12:50:31.085Z,57.41
2022-12-20T12:53:05.017Z,58.85
2022-12-20T12:55:45.749Z,59.15
2022-12-20T12:58:33.379Z,59.75
2022-12-20T13:01:05.090Z,60.63
2022-12-20T13:03:44.293Z,61.00
2022-12-20T13:07:04.667Z,60.27
2022-12-20T13:09:53.746Z,60.09
2022-12-20T13:12:56.646Z,61.19
2022-12-20T13:19:18.644Z,61.37
2022-12-20T13:21:48.567Z,61.56
2022-12-20T13:24:53.362Z,61.72
2022-12-20T13:27:40.925Z,61.60
2022-12-20T13:30:28.561Z,61.52
2022-12-20T13:33:23.045Z,61.16
2022-12-20T13:36:04.781Z,61.51
2022-12-20T13:38:58.044Z,60.50
2022-12-20T13:41:37.033Z,60.92
2022-12-20T13:44:34.620Z,60.82
2022-12-20T13:47:08.641Z,60.27
2022-12-20T13:49:40.423Z,60.97
2022-12-20T13:52:22.381Z,59.54
2022-12-20T13:54:53.923Z,61.21
2022-12-20T13:57:29.523Z,60.77
2022-12-20T14:00:06.559Z,60.47
2022-12-20T14:02:41.144Z,60.43
2022-12-20T14:05:17.906Z,62.01
2022-12-20T14:07:53.262Z,61.57
2022-12-20T14:10:24.842Z,61.45
2022-12-20T14:12:54.148Z,60.76
2022-12-20T14:15:24.989Z,60.98
2022-12-20T14:17:53.225Z,60.26
2022-12-20T14:20:25.405Z,59.21
2022-12-20T14:23:04.953Z,60.06
2022-12-20T14:25:40.604Z,61.32
2022-12-20T14:28:26.483Z,60.29
2022-12-20T14:30:56.543Z,60.40
2022-12-20T14:33:36.066Z,61.72
2022-12-20T14:36:19.285Z,62.69
2022-12-20T14:38:50.626Z,62.55
2022-12-20T14:41:37.234Z,62.66
2022-12-20T14:44:16.715Z,61.88
2022-12-20T14:46:50.046Z,62.28
2022-12-20T14:49:25.921Z,61.94
2022-12-20T14:52:06.677Z,63.01
2022-12-20T14:55:07.154Z,64.72
2022-12-20T14:57:39.259Z,64.41
2022-12-20T15:00:15.293Z,65.02
2022-12-20T15:02:48.125Z,64.89
2022-12-20T15:05:47.220Z,65.89
2022-12-20T15:08:18.392Z,65.54
2022-12-20T15:10:54.402Z,65.95
2022-12-20T15:13:26.659Z,66.58
2022-12-20T15:15:55.556Z,65.33
2022-12-20T15:18:23.730Z,62.60
2022-12-20T15:21:03.192Z,63.22
2022-12-20T15:23:32.291Z,61.85
2022-12-20T15:26:02.909Z,61.42
2022-12-20T15:28:31.319Z,64.32
2022-12-20T15:30:59.518Z,62.86
2022-12-20T15:33:30.488Z,62.76
2022-12-20T15:35:58.864Z,62.34
2022-12-20T15:39:03.115Z,60.47
2022-12-20T15:41:22.804Z,60.85
2022-12-20T15:43:53.579Z,60.84
2022-12-20T15:46:21.933Z,60.46
2022-12-20T15:48:50.283Z,61.27
2022-12-20T15:51:22.920Z,60.75
2022-12-20T15:53:50.952Z,62.52
2022-12-20T15:56:23.122Z,62.51
2022-12-20T15:58:52.837Z,60.99
2022-12-20T16:01:23.911Z,61.43
2022-12-20T16:03:55.895Z,64.57
2022-12-20T16:06:24.256Z,61.33
2022-12-20T16:08:52.683Z,63.94
2022-12-20T16:11:24.923Z,64.46
2022-12-20T16:13:52.989Z,63.03
2022-12-20T16:16:23.465Z,63.38
2022-12-20T16:18:53.904Z,64.54
2022-12-20T16:21:24.666Z,65.84
2022-12-20T16:23:53.639Z,64.70
2022-12-20T16:26:24.991Z,64.56
2022-12-20T16:29:34.265Z,64.87
2022-12-20T16:40:01.557Z,64.02
2022-12-20T16:42:38.865Z,65.27
2022-12-20T16:45:17.229Z,65.55
2022-12-20T16:47:52.683Z,64.86
2022-12-20T16:50:28.222Z,64.37
2022-12-20T16:52:57.158Z,64.94
2022-12-20T16:55:37.710Z,65.42
2022-12-20T16:58:21.294Z,65.08
2022-12-20T17:00:51.641Z,64.66
2022-12-20T17:03:23.239Z,64.17
2022-12-20T17:05:58.083Z,63.05
2022-12-20T17:11:27.250Z,62.43
2022-12-20T17:13:58.994Z,62.89
2022-12-20T17:16:30.841Z,62.79
2022-12-20T17:19:01.377Z,61.23
2022-12-20T17:24:26.193Z,63.30
2022-12-20T17:26:55.366Z,62.89
2022-12-20T17:29:26.107Z,63.80
2022-12-20T17:31:54.576Z,64.83
2022-12-20T17:34:24.780Z,64.03
2022-12-20T17:36:54.866Z,65.21
2022-12-20T17:39:24.570Z,63.41
2022-12-20T17:41:54.160Z,62.57
2022-12-20T17:44:24.772Z,62.89
2022-12-20T17:46:56.067Z,63.80
2022-12-20T17:49:33.848Z,62.40
2022-12-20T17:52:07.129Z,61.81
2022-12-20T17:54:40.300Z,62.55
2022-12-20T17:57:16.547Z,63.46
2022-12-20T17:59:46.636Z,62.40
2022-12-20T18:02:23.114Z,63.34
2022-12-20T18:04:54.794Z,64.49
2022-12-20T18:07:25.873Z,63.41
2022-12-20T18:09:58.843Z,62.05
2022-12-20T18:12:30.280Z,61.40
2022-12-20T18:15:01.156Z,64.36
2022-12-20T18:17:47.972Z,63.34
2022-12-20T18:20:23.140Z,64.08
2022-12-20T18:23:00.217Z,64.54
2022-12-20T18:25:30.474Z,63.40
2022-12-20T18:27:58.680Z,64.16
2022-12-20T18:30:27.159Z,62.39
2022-12-20T18:33:36.974Z,64.55
2022-12-20T18:36:10.219Z,63.86
2022-12-20T18:38:39.829Z,63.96
2022-12-20T18:41:12.154Z,64.08
2022-12-20T18:43:40.826Z,63.40
2022-12-20T18:46:16.358Z,63.96
2022-12-20T18:49:32.624Z,65.63
2022-12-20T18:52:33.988Z,64.00
2022-12-20T18:55:16.082Z,64.13
2022-12-20T18:57:47.996Z,65.14
2022-12-20T19:00:21.520Z,62.74
2022-12-20T19:02:53.233Z,63.90
2022-12-20T19:05:25.024Z,63.68
2022-12-20T19:07:59.725Z,62.96
2022-12-20T19:10:38.237Z,62.98
2022-12-20T19:13:11.854Z,62.63
2022-12-20T19:15:42.095Z,63.96
2022-12-20T19:18:11.168Z,64.44
2022-12-20T19:20:42.180Z,64.53
2022-12-20T19:23:12.542Z,64.06
2022-12-20T19:25:41.629Z,64.13
2022-12-20T19:28:10.646Z,64.99
2022-12-20T19:30:39.808Z,63.95
2022-12-20T19:33:09.265Z,65.33
2022-12-20T19:35:55.503Z,65.32
2022-12-20T19:38:29.480Z,65.48
2022-12-20T19:40:58.478Z,65.27
2022-12-20T19:43:27.462Z,64.90
2022-12-20T19:45:58.415Z,65.39
2022-12-20T19:48:26.903Z,63.96
2022-12-20T19:51:03.027Z,63.81
2022-12-20T19:53:35.578Z,64.14
2022-12-20T19:56:04.819Z,64.55
2022-12-20T19:58:33.461Z,65.62
2022-12-20T20:01:06.052Z,63.59
2022-12-20T20:03:35.105Z,62.80
2022-12-20T20:06:04.947Z,63.18
2022-12-20T20:08:36.111Z,63.49
2022-12-20T20:11:09.675Z,60.94
2022-12-20T20:13:42.054Z,62.62
2022-12-20T20:16:15.471Z,61.03
2022-12-20T20:18:49.660Z,62.69
2022-12-20T20:21:24.486Z,64.24
2022-12-20T20:23:56.187Z,63.11
2022-12-20T20:26:29.855Z,64.01
2022-12-20T20:28:58.968Z,65.04
2022-12-20T20:31:27.529Z,64.70
2022-12-20T20:33:56.900Z,65.57
2022-12-20T20:36:26.307Z,64.89
2022-12-20T20:39:00.031Z,65.12
2022-12-20T20:41:29.816Z,65.45
2022-12-20T20:43:58.610Z,64.98
2022-12-20T20:46:27.049Z,63.32
2022-12-20T20:48:55.673Z,65.09
2022-12-20T20:51:24.149Z,64.73
2022-12-20T20:53:53.291Z,65.21
2022-12-20T20:56:24.306Z,64.62
2022-12-20T20:58:55.228Z,65.08
2022-12-20T21:01:28.266Z,65.02
2022-12-20T21:04:01.844Z,65.04
2022-12-20T21:06:46.981Z,62.77
2022-12-20T21:09:15.876Z,62.11
2022-12-20T21:11:47.166Z,61.48
2022-12-20T21:14:25.686Z,61.75
2022-12-20T21:17:07.008Z,61.89
2022-12-20T21:19:35.555Z,62.16
2022-12-20T21:22:05.293Z,61.02
2022-12-20T21:24:34.469Z,62.24
2022-12-20T21:27:05.273Z,61.55
2022-12-20T21:29:34.483Z,60.88
2022-12-20T21:32:04.852Z,61.93
2022-12-20T21:34:36.287Z,62.56
2022-12-20T21:37:04.859Z,62.37
2022-12-20T21:39:33.256Z,62.04
2022-12-20T21:42:02.674Z,60.58
2022-12-20T21:44:32.374Z,62.27
2022-12-20T21:47:00.893Z,63.01
2022-12-20T21:49:29.499Z,63.68
2022-12-20T21:51:58.370Z,63.32
2022-12-20T21:54:26.808Z,61.97
2022-12-20T21:56:55.082Z,61.86
2022-12-20T21:59:23.368Z,62.04
2022-12-20T22:01:53.493Z,60.13
2022-12-20T22:04:21.704Z,60.39
2022-12-20T22:06:49.951Z,60.91
2022-12-20T22:09:18.108Z,61.78
2022-12-20T22:11:48.935Z,61.89
2022-12-20T22:14:17.413Z,63.83
2022-12-20T22:16:45.850Z,62.23
2022-12-20T22:19:16.035Z,65.84
2022-12-20T22:21:44.187Z,64.34
2022-12-20T22:24:12.495Z,63.51
2022-12-20T22:26:41.808Z,63.31
2022-12-20T22:29:10.795Z,63.51
2022-12-20T22:31:39.404Z,64.27
2022-12-20T22:34:10.631Z,64.44
2022-12-20T22:36:43.763Z,64.31
2022-12-20T22:39:18.366Z,63.62
2022-12-20T22:41:49.638Z,64.04
2022-12-20T22:44:18.799Z,62.27
2022-12-20T22:46:48.439Z,62.73
2022-12-20T22:49:20.545Z,63.13
2022-12-20T22:52:06.294Z,63.43
2022-12-20T22:54:43.789Z,63.66
2022-12-20T22:57:15.544Z,66.31
2022-12-20T22:59:53.003Z,64.78
2022-12-20T23:02:27.987Z,64.65
2022-12-20T23:04:58.644Z,64.69
2022-12-20T23:07:30.148Z,63.86
2022-12-20T23:10:01.348Z,62.32
2022-12-20T23:12:47.856Z,61.26
2022-12-20T23:15:36.236Z,61.35
2022-12-20T23:18:06.867Z,62.32
2022-12-20T23:20:53.042Z,61.65
2022-12-20T23:23:24.406Z,60.29
2022-12-20T23:25:56.013Z,60.80
2022-12-20T23:28:33.433Z,61.40
2022-12-20T23:31:07.359Z,63.12
2022-12-20T23:33:45.354Z,64.31
2022-12-20T23:36:39.251Z,65.05
2022-12-20T23:39:15.839Z,65.25
2022-12-20T23:42:47.320Z,65.26
2022-12-20T23:45:22.323Z,64.94
2022-12-20T23:47:58.478Z,64.91
2022-12-20T23:50:29.148Z,64.75
2022-12-20T23:53:00.530Z,63.93
2022-12-20T23:55:31.433Z,64.16
2022-12-20T23:58:13.270Z,64.11
